createdAt,value
2022-12-31T00:01:25.213Z,98821.31
2022-12-31T00:03:54.496Z,98814.69
2022-12-31T00:06:25.344Z,98819.50
2022-12-31T00:08:55.034Z,98818.25
2022-12-31T00:11:25.273Z,98823.63
2022-12-31T00:13:54.466Z,98832.84
2022-12-31T00:16:26.700Z,98835.84
2022-12-31T00:18:59.092Z,98831.06
2022-12-31T00:21:28.708Z,98832.41
2022-12-31T00:23:57.833Z,98834.47
2022-12-31T00:26:28.540Z,98827.13
2022-12-31T00:28:58.018Z,98836.34
2022-12-31T00:31:31.122Z,98841.19
2022-12-31T00:34:00.375Z,98840.97
2022-12-31T00:36:30.647Z,98849.66
2022-12-31T00:39:00.736Z,98846.59
2022-12-31T00:41:30.177Z,98845.56
2022-12-31T00:43:59.025Z,98850.28
2022-12-31T00:46:29.254Z,98846.56
2022-12-31T00:48:57.848Z,98851.28
2022-12-31T00:51:27.550Z,98850.47
2022-12-31T00:53:58.276Z,98853.44
2022-12-31T00:56:28.891Z,98870.66
2022-12-31T00:58:57.670Z,98869.56
2022-12-31T01:01:30.028Z,98872.19
2022-12-31T01:04:00.327Z,98884.28
2022-12-31T01:06:29.064Z,98875.59
2022-12-31T01:08:57.730Z,98890.88
2022-12-31T01:11:29.304Z,98893.28
2022-12-31T01:13:59.652Z,98890.22
2022-12-31T01:16:32.436Z,98888.63
2022-12-31T01:19:02.477Z,98883.50
2022-12-31T01:21:31.667Z,98895.56
2022-12-31T01:24:00.855Z,98895.25
2022-12-31T01:26:29.736Z,98892.03
2022-12-31T01:28:58.322Z,98897.41
2022-12-31T01:31:26.991Z,98909.06
2022-12-31T01:33:57.196Z,98917.25
2022-12-31T01:36:27.309Z,98912.00
2022-12-31T01:38:56.852Z,98918.88
2022-12-31T01:41:27.230Z,98920.34
2022-12-31T01:43:58.561Z,98914.06
2022-12-31T01:46:30.785Z,98919.66
2022-12-31T01:49:03.638Z,98920.47
2022-12-31T01:51:34.331Z,98922.50
2022-12-31T01:54:04.063Z,98926.38
2022-12-31T01:56:32.789Z,98929.63
2022-12-31T01:59:01.694Z,98927.69
2022-12-31T02:01:32.406Z,98928.91
2022-12-31T02:04:07.223Z,98934.97
2022-12-31T02:06:39.206Z,98935.75
2022-12-31T02:09:08.257Z,98937.00
2022-12-31T02:11:37.993Z,98926.97
2022-12-31T02:14:09.262Z,98925.56
2022-12-31T02:16:45.346Z,98932.06
2022-12-31T02:19:43.561Z,98934.78
2022-12-31T02:22:22.698Z,98937.75
2022-12-31T02:25:04.932Z,98951.06
2022-12-31T02:27:46.338Z,98947.66
2022-12-31T02:30:18.703Z,98958.94
2022-12-31T02:33:10.384Z,98957.34
2022-12-31T02:35:47.810Z,98952.47
2022-12-31T02:38:19.552Z,98954.63
2022-12-31T02:40:48.725Z,98959.31
2022-12-31T02:43:17.361Z,98955.66
2022-12-31T02:45:52.517Z,98958.03
2022-12-31T02:48:30.571Z,98959.09
2022-12-31T02:51:08.981Z,98954.84
2022-12-31T02:54:02.765Z,98958.72
2022-12-31T02:56:34.880Z,98957.72
2022-12-31T02:59:24.265Z,98945.97
2022-12-31T03:02:19.216Z,98951.13
2022-12-31T03:04:51.025Z,98941.44
2022-12-31T03:07:22.096Z,98950.09
2022-12-31T03:09:51.031Z,98952.72
2022-12-31T03:12:39.507Z,98947.03
2022-12-31T03:15:19.774Z,98944.03
2022-12-31T03:17:52.374Z,98937.28
2022-12-31T03:20:40.487Z,98942.53
2022-12-31T03:23:11.376Z,98944.59
2022-12-31T03:25:39.033Z,98936.72
2022-12-31T03:28:09.303Z,98938.88
2022-12-31T03:30:39.151Z,98938.09
2022-12-31T03:33:09.619Z,98952.44
2022-12-31T03:35:39.148Z,98961.09
2022-12-31T03:38:08.195Z,98964.78
2022-12-31T03:40:39.336Z,98976.84
2022-12-31T03:43:08.293Z,98975.03
2022-12-31T03:45:37.432Z,98979.00
2022-12-31T03:48:07.613Z,98973.19
2022-12-31T03:50:37.590Z,98974.06
2022-12-31T03:53:06.833Z,98978.50
2022-12-31T03:55:35.467Z,98975.16
2022-12-31T03:58:04.293Z,98975.75
2022-12-31T04:00:33.025Z,98978.94
2022-12-31T04:03:01.688Z,98987.00
2022-12-31T04:05:30.346Z,98983.34
2022-12-31T04:08:00.272Z,98994.63
2022-12-31T04:10:28.893Z,98991.59
2022-12-31T04:13:00.187Z,98997.28
2022-12-31T04:15:28.735Z,98996.72
2022-12-31T04:17:57.323Z,98995.13
2022-12-31T04:20:25.935Z,98991.56
2022-12-31T04:22:54.557Z,98982.31
2022-12-31T04:25:24.549Z,98980.69
2022-12-31T04:27:53.185Z,98991.78
2022-12-31T04:30:21.798Z,98999.19
2022-12-31T04:32:50.365Z,99002.41
2022-12-31T04:35:19.084Z,98995.69
2022-12-31T04:37:47.808Z,98982.56
2022-12-31T04:40:16.489Z,98981.56
2022-12-31T04:42:46.423Z,98994.84
2022-12-31T04:45:15.077Z,99005.91
2022-12-31T04:47:43.710Z,99021.19
2022-12-31T04:50:12.320Z,99020.19
2022-12-31T04:52:43.106Z,99033.88
2022-12-31T04:55:12.205Z,99026.03
2022-12-31T04:57:42.345Z,99025.56
2022-12-31T05:00:13.672Z,99025.13
2022-12-31T05:02:42.445Z,99031.75
2022-12-31T05:05:11.239Z,99037.78
2022-12-31T05:07:39.919Z,99028.22
2022-12-31T05:10:09.199Z,99031.22
2022-12-31T05:12:37.802Z,99050.53
2022-12-31T05:15:07.911Z,99040.50
2022-12-31T05:17:37.862Z,99036.19
2022-12-31T05:20:08.003Z,99035.50
2022-12-31T05:22:36.616Z,99034.50
2022-12-31T05:25:06.116Z,99039.75
2022-12-31T05:27:34.919Z,99040.44
2022-12-31T05:30:03.494Z,99032.56
2022-12-31T05:32:32.208Z,99036.78
2022-12-31T05:35:02.207Z,99029.13
2022-12-31T05:37:31.363Z,99021.84
2022-12-31T05:40:00.117Z,99031.53
2022-12-31T05:42:28.835Z,99030.06
2022-12-31T05:44:57.427Z,99030.97
2022-12-31T05:47:26.487Z,99025.63
2022-12-31T05:49:55.285Z,99023.16
2022-12-31T05:52:25.308Z,99025.88
2022-12-31T05:54:54.458Z,99018.13
2022-12-31T05:57:23.109Z,99026.00
2022-12-31T05:59:53.456Z,99037.19
2022-12-31T06:02:22.213Z,99029.09
2022-12-31T06:04:50.798Z,99032.41
2022-12-31T06:07:19.464Z,99023.16
2022-12-31T06:09:49.443Z,99022.81
2022-12-31T06:12:18.078Z,99024.06
2022-12-31T06:14:46.684Z,99032.41
2022-12-31T06:17:15.309Z,99044.50
2022-12-31T06:19:44.112Z,99056.50
2022-12-31T06:22:12.725Z,99047.47
2022-12-31T06:24:42.222Z,99052.34
2022-12-31T06:27:12.292Z,99050.97
2022-12-31T06:29:40.925Z,99057.28
2022-12-31T06:32:09.546Z,99055.66
2022-12-31T06:34:38.114Z,99051.66
2022-12-31T06:37:06.753Z,99054.50
2022-12-31T06:39:35.350Z,99068.19
2022-12-31T06:42:03.939Z,99062.75
2022-12-31T06:44:34.008Z,99065.38
2022-12-31T06:47:02.645Z,99080.53
2022-12-31T06:49:31.273Z,99091.50
2022-12-31T06:51:59.938Z,99093.09
2022-12-31T06:54:28.559Z,99077.59
2022-12-31T06:56:57.793Z,99079.06
2022-12-31T06:59:29.262Z,99079.13
2022-12-31T07:02:06.277Z,99080.59
2022-12-31T07:05:06.429Z,99070.91
2022-12-31T07:07:39.615Z,99069.97
2022-12-31T07:10:15.882Z,99067.00
2022-12-31T07:12:53.900Z,99070.31
2022-12-31T07:15:38.252Z,99082.03
2022-12-31T07:18:16.722Z,99093.22
2022-12-31T07:20:46.010Z,99088.19
2022-12-31T07:23:15.178Z,99093.72
2022-12-31T07:25:48.858Z,99089.72
2022-12-31T07:28:23.548Z,99090.50
2022-12-31T07:31:01.291Z,99090.97
2022-12-31T07:33:39.908Z,99092.19
2022-12-31T07:36:15.426Z,99105.09
2022-12-31T07:38:51.701Z,99107.72
2022-12-31T07:41:26.218Z,99103.63
2022-12-31T07:44:00.963Z,99103.84
2022-12-31T07:46:34.860Z,99105.31
2022-12-31T07:49:05.665Z,99102.34
2022-12-31T07:51:34.959Z,99119.81
2022-12-31T07:54:05.481Z,99117.41
2022-12-31T07:56:37.513Z,99126.28
2022-12-31T07:59:17.412Z,99122.66
2022-12-31T08:01:51.894Z,99125.06
2022-12-31T08:04:28.545Z,99141.53
2022-12-31T08:07:04.351Z,99132.25
2022-12-31T08:09:40.949Z,99142.69
2022-12-31T08:12:10.146Z,99145.09
2022-12-31T08:14:45.028Z,99141.69
2022-12-31T08:17:16.119Z,99142.25
2022-12-31T08:19:47.175Z,99133.94
2022-12-31T08:22:25.177Z,99141.94
2022-12-31T08:25:06.263Z,99148.13
2022-12-31T08:27:38.518Z,99139.03
2022-12-31T08:30:10.025Z,99147.47
2022-12-31T08:32:44.252Z,99138.00
2022-12-31T08:35:24.557Z,99141.66
2022-12-31T08:38:00.604Z,99135.56
2022-12-31T08:40:32.724Z,99134.34
2022-12-31T08:43:13.422Z,99141.19
2022-12-31T08:45:44.751Z,99143.16
2022-12-31T08:48:21.307Z,99142.34
2022-12-31T08:50:51.910Z,99139.28
2022-12-31T08:53:21.088Z,99146.25
2022-12-31T08:55:51.275Z,99161.59
2022-12-31T08:58:29.056Z,99164.34
2022-12-31T09:00:59.308Z,99171.44
2022-12-31T09:03:36.432Z,99185.28
2022-12-31T09:06:13.319Z,99184.03
2022-12-31T09:08:47.678Z,99176.31
2022-12-31T09:11:23.065Z,99175.84
2022-12-31T09:14:06.439Z,99174.94
2022-12-31T09:16:41.740Z,99177.94
2022-12-31T09:19:11.460Z,99177.81
2022-12-31T09:21:44.327Z,99168.59
2022-12-31T09:24:14.211Z,99181.38
2022-12-31T09:26:50.520Z,99181.97
2022-12-31T09:29:29.868Z,99186.41
2022-12-31T09:32:02.436Z,99189.84
2022-12-31T09:34:37.385Z,99179.66
2022-12-31T09:37:13.791Z,99185.31
2022-12-31T09:39:43.626Z,99186.09
2022-12-31T09:42:38.785Z,99186.91
2022-12-31T09:45:29.802Z,99175.72
2022-12-31T09:48:32.366Z,99177.31
2022-12-31T09:51:10.415Z,99194.13
2022-12-31T09:54:06.192Z,99186.47
2022-12-31T09:56:37.645Z,99189.44
2022-12-31T09:59:15.179Z,99199.03
2022-12-31T10:01:49.716Z,99196.75
2022-12-31T10:04:39.389Z,99179.81
2022-12-31T10:07:22.500Z,99188.19
2022-12-31T10:10:01.668Z,99180.16
2022-12-31T10:12:58.204Z,99172.13
2022-12-31T10:15:49.829Z,99171.84
2022-12-31T10:18:29.942Z,99180.66
2022-12-31T10:21:07.342Z,99172.50
2022-12-31T10:23:52.307Z,99171.81
2022-12-31T10:26:42.624Z,99170.41
2022-12-31T10:29:26.277Z,99166.91
2022-12-31T10:32:05.495Z,99169.66
2022-12-31T10:34:41.790Z,99168.00
2022-12-31T10:37:14.380Z,99159.63
2022-12-31T10:39:51.342Z,99163.47
2022-12-31T10:42:59.374Z,99154.88
2022-12-31T10:46:02.717Z,99166.59
2022-12-31T10:48:57.413Z,99156.06
2022-12-31T10:52:02.506Z,99151.25
2022-12-31T10:55:15.737Z,99135.75
2022-12-31T10:58:16.936Z,99135.03
2022-12-31T11:00:53.818Z,99132.84
2022-12-31T11:03:40.243Z,99128.88
2022-12-31T11:06:37.394Z,99135.03
2022-12-31T11:09:40.919Z,99139.50
2022-12-31T11:12:22.446Z,99134.09
2022-12-31T11:15:08.896Z,99140.56
2022-12-31T11:17:47.566Z,99138.34
2022-12-31T11:20:39.110Z,99132.66
2022-12-31T11:23:17.702Z,99131.63
2022-12-31T11:25:56.310Z,99124.06
2022-12-31T11:28:49.615Z,99127.06
2022-12-31T11:31:32.630Z,99120.25
2022-12-31T11:34:14.912Z,99123.50
2022-12-31T11:36:52.395Z,99107.94
2022-12-31T11:39:36.397Z,99109.53
2022-12-31T11:42:16.265Z,99108.50
2022-12-31T11:44:48.349Z,99100.09
2022-12-31T11:48:27.976Z,99097.97
2022-12-31T11:50:45.757Z,99090.91
2022-12-31T11:53:26.219Z,99080.94
2022-12-31T11:56:01.524Z,99082.63
2022-12-31T11:58:30.306Z,99083.16
2022-12-31T12:01:01.987Z,99081.84
2022-12-31T12:03:30.701Z,99088.22
2022-12-31T12:06:00.947Z,99084.03
2022-12-31T12:08:31.656Z,99077.72
2022-12-31T12:11:05.226Z,99080.66
2022-12-31T12:13:34.068Z,99079.03
2022-12-31T12:16:04.515Z,99072.66
2022-12-31T12:18:37.968Z,99081.16
2022-12-31T12:21:13.851Z,99077.94
2022-12-31T12:23:43.594Z,99079.53
2022-12-31T12:26:29.198Z,99071.09
2022-12-31T12:29:01.586Z,99079.28
2022-12-31T12:31:30.572Z,99068.78
2022-12-31T12:33:59.194Z,99066.66
2022-12-31T12:36:29.201Z,99071.69
2022-12-31T12:39:07.510Z,99057.97
2022-12-31T12:41:36.130Z,99051.63
2022-12-31T12:44:06.438Z,99060.09
2022-12-31T12:46:37.088Z,99054.28
2022-12-31T12:49:06.035Z,99059.00
2022-12-31T12:51:45.539Z,99058.22
2022-12-31T12:54:26.533Z,99060.59
2022-12-31T12:57:00.612Z,99052.41
2022-12-31T12:59:49.423Z,99063.31
2022-12-31T13:02:33.069Z,99052.53
2022-12-31T13:05:13.085Z,99053.78
2022-12-31T13:07:52.082Z,99055.38
2022-12-31T13:10:30.785Z,99063.00
2022-12-31T13:13:23.450Z,99059.56
2022-12-31T13:15:59.231Z,99057.44
2022-12-31T13:18:37.332Z,99050.25
2022-12-31T13:21:21.168Z,99052.34
2022-12-31T13:23:54.132Z,99043.84
2022-12-31T13:26:27.369Z,99036.91
2022-12-31T13:28:57.111Z,99035.81
2022-12-31T13:31:31.358Z,99023.59
2022-12-31T13:34:02.483Z,99039.16
2022-12-31T13:36:32.721Z,99029.13
2022-12-31T13:39:04.133Z,99035.94
2022-12-31T13:41:37.829Z,99033.25
2022-12-31T13:44:13.228Z,99020.22
2022-12-31T13:46:45.981Z,99018.78
2022-12-31T13:49:18.053Z,99017.94
2022-12-31T13:51:49.284Z,99030.53
2022-12-31T13:54:27.875Z,99026.00
2022-12-31T13:57:01.712Z,99023.25
2022-12-31T13:59:33.963Z,99023.72
2022-12-31T14:02:07.788Z,99023.66
2022-12-31T14:04:40.342Z,99025.34
2022-12-31T14:07:14.856Z,99022.97
2022-12-31T14:09:46.477Z,99027.13
2022-12-31T14:12:29.072Z,99021.97
2022-12-31T14:15:04.636Z,99020.56
2022-12-31T14:17:39.058Z,99019.63
2022-12-31T14:20:15.958Z,99013.34
2022-12-31T14:22:49.924Z,99025.16
2022-12-31T14:25:23.260Z,99024.53
2022-12-31T14:27:53.952Z,99023.66
2022-12-31T14:30:23.939Z,99036.19
2022-12-31T14:33:01.893Z,99030.38
2022-12-31T14:35:41.625Z,99027.56
2022-12-31T14:38:19.983Z,99034.16
2022-12-31T14:41:01.861Z,99047.22
2022-12-31T14:43:39.119Z,99048.47
2022-12-31T14:46:14.297Z,99044.25
2022-12-31T14:48:50.432Z,99046.09
2022-12-31T14:51:19.142Z,99052.28
2022-12-31T14:53:53.451Z,99050.34
2022-12-31T14:56:39.092Z,99048.13
2022-12-31T14:59:24.725Z,99059.34
2022-12-31T15:01:53.867Z,99056.06
2022-12-31T15:04:32.843Z,99044.41
2022-12-31T15:07:08.146Z,99055.56
2022-12-31T15:09:52.266Z,99065.63
2022-12-31T15:12:48.549Z,99061.09
2022-12-31T15:15:25.980Z,99059.94
2022-12-31T15:18:02.691Z,99058.72
2022-12-31T15:20:50.754Z,99060.50
2022-12-31T15:23:22.413Z,99067.91
2022-12-31T15:25:55.194Z,99063.13
2022-12-31T15:28:31.745Z,99064.38
2022-12-31T15:31:04.618Z,99071.16
2022-12-31T15:33:35.698Z,99067.94
2022-12-31T15:36:17.021Z,99069.53
2022-12-31T15:38:50.491Z,99069.88
2022-12-31T15:41:28.803Z,99073.53
2022-12-31T15:44:02.027Z,99065.88
2022-12-31T15:46:33.275Z,99077.41
2022-12-31T15:49:06.780Z,99065.19
2022-12-31T15:51:44.600Z,99069.53
2022-12-31T15:54:22.706Z,99072.72
2022-12-31T15:56:52.559Z,99064.72
2022-12-31T15:59:24.516Z,99072.03
2022-12-31T16:01:55.968Z,99074.44
2022-12-31T16:04:27.082Z,99070.66
2022-12-31T16:06:59.742Z,99073.38
2022-12-31T16:09:30.551Z,99082.75
2022-12-31T16:12:00.704Z,99089.25
2022-12-31T16:14:35.899Z,99091.97
2022-12-31T16:17:05.320Z,99090.38
2022-12-31T16:19:36.081Z,99088.66
2022-12-31T16:22:10.024Z,99094.13
2022-12-31T16:25:02.839Z,99094.34
2022-12-31T16:27:28.648Z,99100.47
2022-12-31T16:30:01.982Z,99098.91
2022-12-31T16:32:35.949Z,99092.72
2022-12-31T16:35:10.730Z,99093.59
2022-12-31T16:37:46.243Z,99093.47
2022-12-31T16:40:20.153Z,99094.94
2022-12-31T16:42:49.132Z,99094.69
2022-12-31T16:45:25.756Z,99095.13
2022-12-31T16:47:54.505Z,99104.16
2022-12-31T16:50:24.660Z,99103.81
2022-12-31T16:52:58.977Z,99106.28
2022-12-31T16:55:30.108Z,99097.69
2022-12-31T16:58:00.748Z,99110.13
2022-12-31T17:00:30.765Z,99108.16
2022-12-31T17:03:07.273Z,99117.47
2022-12-31T17:05:55.099Z,99104.66
2022-12-31T17:08:26.012Z,99115.00
2022-12-31T17:10:56.450Z,99111.41
2022-12-31T17:13:30.354Z,99112.22
2022-12-31T17:16:01.948Z,99121.13
2022-12-31T17:18:36.145Z,99131.22
2022-12-31T17:21:09.302Z,99121.97
2022-12-31T17:23:39.772Z,99122.41
2022-12-31T17:26:11.344Z,99121.66
2022-12-31T17:28:43.425Z,99122.06
2022-12-31T17:31:35.272Z,99129.53
2022-12-31T17:34:22.519Z,99128.56
2022-12-31T17:37:02.600Z,99126.81
2022-12-31T17:39:47.449Z,99133.06
2022-12-31T17:42:24.727Z,99136.47
2022-12-31T17:44:56.004Z,99136.69
2022-12-31T17:47:33.980Z,99148.84
2022-12-31T17:50:07.473Z,99147.88
2022-12-31T17:52:36.055Z,99151.56
2022-12-31T17:55:05.093Z,99153.00
2022-12-31T17:57:33.741Z,99159.66
2022-12-31T18:00:05.663Z,99153.19
2022-12-31T18:02:35.705Z,99155.16
2022-12-31T18:05:11.220Z,99157.38
2022-12-31T18:07:39.899Z,99166.84
2022-12-31T18:10:09.085Z,99167.88
2022-12-31T18:12:37.980Z,99160.66
2022-12-31T18:15:08.165Z,99159.22
2022-12-31T18:17:38.138Z,99163.06
2022-12-31T18:20:07.647Z,99155.06
2022-12-31T18:22:36.459Z,99161.31
2022-12-31T18:25:07.267Z,99155.06
2022-12-31T18:27:35.851Z,99169.38
2022-12-31T18:30:06.065Z,99173.38
2022-12-31T18:32:38.650Z,99163.72
2022-12-31T18:35:32.926Z,99166.97
2022-12-31T18:38:01.752Z,99172.03
2022-12-31T18:40:30.384Z,99166.97
2022-12-31T18:43:04.648Z,99166.06
2022-12-31T18:45:33.845Z,99169.13
2022-12-31T18:48:03.831Z,99165.53
2022-12-31T18:50:32.421Z,99167.59
2022-12-31T18:53:01.065Z,99172.63
2022-12-31T18:55:35.119Z,99177.09
2022-12-31T18:58:03.865Z,99179.91
2022-12-31T19:00:32.509Z,99181.56
2022-12-31T19:03:01.174Z,99180.81
2022-12-31T19:05:33.457Z,99185.88
2022-12-31T19:08:02.061Z,99182.66
2022-12-31T19:10:30.738Z,99180.22
2022-12-31T19:12:59.400Z,99181.44
2022-12-31T19:15:30.497Z,99186.47
2022-12-31T19:17:59.247Z,99192.91
2022-12-31T19:20:28.189Z,99186.34
2022-12-31T19:22:58.688Z,99194.84
2022-12-31T19:25:29.008Z,99182.59
2022-12-31T19:27:57.802Z,99188.03
2022-12-31T19:30:28.676Z,99196.31
2022-12-31T19:32:57.362Z,99191.47
2022-12-31T19:35:26.480Z,99187.66
2022-12-31T19:37:56.089Z,99193.66
2022-12-31T19:40:28.923Z,99194.09
2022-12-31T19:42:58.303Z,99202.72
2022-12-31T19:45:28.274Z,99200.50
2022-12-31T19:47:57.811Z,99206.53
2022-12-31T19:50:28.070Z,99201.91
2022-12-31T19:52:58.821Z,99206.34
2022-12-31T19:55:28.814Z,99208.13
2022-12-31T19:57:57.411Z,99215.13
2022-12-31T20:00:25.973Z,99211.38
2022-12-31T20:02:54.700Z,99214.84
2022-12-31T20:05:23.466Z,99205.59
2022-12-31T20:07:52.104Z,99202.16
2022-12-31T20:10:20.819Z,99212.81
2022-12-31T20:12:50.729Z,99207.16
2022-12-31T20:15:19.471Z,99210.81
2022-12-31T20:17:48.115Z,99209.22
2022-12-31T20:20:16.957Z,99207.16
2022-12-31T20:22:45.578Z,99212.81
2022-12-31T20:25:14.173Z,99217.22
2022-12-31T20:27:42.804Z,99213.03
2022-12-31T20:30:13.046Z,99219.47
2022-12-31T20:32:41.688Z,99217.84
2022-12-31T20:35:10.282Z,99217.84
2022-12-31T20:37:38.884Z,99214.66
2022-12-31T20:40:08.711Z,99219.47
2022-12-31T20:42:39.874Z,99221.50
2022-12-31T20:45:09.609Z,99212.25
2022-12-31T20:47:39.571Z,99218.47
2022-12-31T20:50:11.928Z,99216.06
2022-12-31T20:52:40.777Z,99211.63
2022-12-31T20:55:10.593Z,99213.06
2022-12-31T20:57:39.208Z,99207.22
2022-12-31T21:00:08.861Z,99211.44
2022-12-31T21:02:42.755Z,99213.25
2022-12-31T21:05:12.300Z,99213.28
2022-12-31T21:07:41.041Z,99228.75
2022-12-31T21:10:10.205Z,99223.50
2022-12-31T21:12:44.046Z,99222.31
2022-12-31T21:15:13.177Z,99230.16
2022-12-31T21:17:43.580Z,99237.59
2022-12-31T21:20:12.956Z,99229.94
2022-12-31T21:22:41.631Z,99238.38
2022-12-31T21:25:11.338Z,99238.00
2022-12-31T21:27:39.978Z,99236.00
2022-12-31T21:30:19.498Z,99246.47
2022-12-31T21:32:50.087Z,99248.88
2022-12-31T21:38:08.371Z,99251.31
2022-12-31T21:40:37.031Z,99251.69
2022-12-31T21:43:05.676Z,99253.31
2022-12-31T21:45:35.187Z,99248.13
2022-12-31T21:48:21.724Z,99255.75
2022-12-31T21:50:52.418Z,99253.72
2022-12-31T21:53:26.303Z,99257.16
2022-12-31T21:56:08.894Z,99263.38
2022-12-31T21:58:38.162Z,99260.97
2022-12-31T22:01:24.985Z,99269.63
2022-12-31T22:03:55.047Z,99269.03
2022-12-31T22:06:24.574Z,99277.03
2022-12-31T22:08:54.785Z,99280.88
2022-12-31T22:11:25.114Z,99272.03
2022-12-31T22:13:54.468Z,99273.03
2022-12-31T22:16:23.731Z,99269.63
2022-12-31T22:18:52.405Z,99288.72
2022-12-31T22:21:23.975Z,99291.09
2022-12-31T22:23:54.435Z,99288.06
2022-12-31T22:26:24.534Z,99286.28
2022-12-31T22:28:58.805Z,99292.31
2022-12-31T22:31:29.887Z,99282.03
2022-12-31T22:33:59.139Z,99297.09
2022-12-31T22:36:29.097Z,99309.97
2022-12-31T22:38:58.827Z,99300.34
2022-12-31T22:41:28.375Z,99303.75
2022-12-31T22:44:03.536Z,99313.19
2022-12-31T22:46:33.784Z,99320.41
2022-12-31T22:49:03.870Z,99318.19
2022-12-31T22:51:58.739Z,99330.03
2022-12-31T22:54:22.624Z,99324.56
2022-12-31T22:56:51.189Z,99331.81
2022-12-31T22:59:19.853Z,99324.56
2022-12-31T23:01:48.522Z,99331.38
2022-12-31T23:04:17.465Z,99318.09
2022-12-31T23:06:47.477Z,99324.91
2022-12-31T23:09:35.092Z,99314.31
2022-12-31T23:12:04.380Z,99307.66
2022-12-31T23:14:50.709Z,99334.78
2022-12-31T23:17:42.497Z,99335.19
2022-12-31T23:20:31.446Z,99338.75
2022-12-31T23:23:10.632Z,99336.53
2022-12-31T23:25:41.117Z,99336.38
2022-12-31T23:28:12.052Z,99340.38
2022-12-31T23:30:41.232Z,99343.19
2022-12-31T23:33:14.868Z,99343.38
2022-12-31T23:35:43.916Z,99343.13
2022-12-31T23:38:16.569Z,99347.94
2022-12-31T23:40:45.414Z,99336.28
2022-12-31T23:43:20.098Z,99340.69
2022-12-31T23:45:49.385Z,99346.34
2022-12-31T23:48:17.981Z,99349.53
2022-12-31T23:50:52.937Z,99347.47
2022-12-31T23:53:24.365Z,99340.66
2022-12-31T23:55:53.654Z,99341.03
2022-12-31T23:58:23.168Z,99336.66
